Time;durP1;ratioP1;P1;durP2;ratioP2;P2;SDS_P1;SDS_P2;PMS_P1;PMS_P2;Temp;Humidity;BMP_temperature;BMP_pressure;BME280_temperature;BME280_humidity;BME280_pressure;Samples;Min_cycle;Max_cycle;Signal;HPM_P1;HPM_P2
2022/04/03 00:01:08;;;;;;;3.37;3.17;;;2.20;99.90;;;;;;5018628;28;20201;-66
2022/04/03 00:03:35;;;;;;;3.10;2.90;;;2.20;99.90;;;;;;5013869;28;20262;-66
2022/04/03 00:06:02;;;;;;;3.00;2.90;;;2.20;99.90;;;;;;5022963;28;20288;-66
2022/04/03 00:08:31;;;;;;;3.20;3.00;;;2.20;99.90;;;;;;5019986;28;20292;-67
2022/04/03 00:10:59;;;;;;;3.10;2.90;;;2.20;99.90;;;;;;5022557;28;20205;-65
2022/04/03 00:13:26;;;;;;;3.07;2.87;;;2.20;99.90;;;;;;5017677;28;20197;-68
2022/04/03 00:15:53;;;;;;;2.80;2.70;;;2.10;99.90;;;;;;5022496;28;20225;-67
2022/04/03 00:18:20;;;;;;;2.70;2.60;;;2.10;99.90;;;;;;5018010;28;20233;-68
2022/04/03 00:20:47;;;;;;;2.70;2.60;;;2.20;99.90;;;;;;5028325;28;20209;-67
2022/04/03 00:23:15;;;;;;;2.70;2.60;;;2.30;99.90;;;;;;5024253;28;20224;-67
2022/04/03 00:25:43;;;;;;;2.97;2.87;;;2.30;99.90;;;;;;5038771;28;20225;-66
2022/04/03 00:28:10;;;;;;;3.10;2.90;;;2.30;99.90;;;;;;5048344;28;20464;-67
2022/04/03 00:30:37;;;;;;;2.50;2.40;;;2.30;99.90;;;;;;5046992;28;20232;-67
2022/04/03 00:33:04;;;;;;;2.90;2.80;;;2.30;99.90;;;;;;5023467;28;20248;-68
2022/04/03 00:35:30;;;;;;;2.63;2.53;;;2.30;99.90;;;;;;5025242;28;20225;-66
2022/04/03 00:37:57;;;;;;;2.87;2.67;;;2.20;99.90;;;;;;5022249;28;20206;-66
2022/04/03 00:40:26;;;;;;;3.07;2.87;;;2.20;99.90;;;;;;5013371;28;20252;-66
2022/04/03 00:42:54;;;;;;;2.80;2.67;;;2.30;99.90;;;;;;5013092;28;20208;-67
2022/04/03 00:45:21;;;;;;;3.10;3.00;;;2.30;99.90;;;;;;5010567;28;20228;-67
2022/04/03 00:47:49;;;;;;;3.10;2.90;;;2.30;99.90;;;;;;5012040;28;20299;-67
2022/04/03 00:50:18;;;;;;;3.17;2.97;;;2.20;99.90;;;;;;5019664;28;20239;-68
2022/04/03 00:52:45;;;;;;;3.23;3.03;;;2.20;99.90;;;;;;5020562;28;20293;-67
2022/04/03 00:55:12;;;;;;;3.00;2.90;;;2.10;99.90;;;;;;5018141;28;20251;-67
2022/04/03 00:57:39;;;;;;;3.20;3.00;;;2.20;99.90;;;;;;5024084;28;20205;-66
2022/04/03 01:00:09;;;;;;;2.83;2.73;;;2.20;99.90;;;;;;5031050;28;20287;-67
2022/04/03 01:02:36;;;;;;;2.80;2.70;;;2.10;99.90;;;;;;5033013;28;20276;-65
2022/04/03 01:05:03;;;;;;;2.90;2.80;;;2.10;99.90;;;;;;5031530;28;20790;-64
2022/04/03 01:07:30;;;;;;;2.40;2.30;;;2.10;99.90;;;;;;5026801;28;20755;-68
2022/04/03 01:09:57;;;;;;;2.93;2.73;;;2.20;99.90;;;;;;5013318;28;20575;-66
2022/04/03 01:12:24;;;;;;;2.20;2.10;;;2.30;99.90;;;;;;5013157;28;20296;-67
2022/04/03 01:14:51;;;;;;;2.60;2.50;;;2.50;99.90;;;;;;5011999;28;20312;-66
2022/04/03 01:17:19;;;;;;;2.40;2.30;;;2.60;99.90;;;;;;5011671;28;20216;-67
2022/04/03 01:19:46;;;;;;;2.43;2.33;;;2.60;99.90;;;;;;5012777;28;20201;-67
2022/04/03 01:22:13;;;;;;;2.57;2.47;;;2.70;99.90;;;;;;5012737;28;20313;-66
2022/04/03 01:24:43;;;;;;;2.57;2.47;;;2.70;99.90;;;;;;5011525;28;20316;-67
2022/04/03 01:27:12;;;;;;;2.87;2.77;;;2.70;99.90;;;;;;5023035;28;20284;-67
2022/04/03 01:29:38;;;;;;;2.90;2.80;;;2.80;99.90;;;;;;5019200;28;20205;-67
2022/04/03 01:32:07;;;;;;;2.73;2.63;;;2.80;99.90;;;;;;5012142;28;20648;-64
2022/04/03 01:34:34;;;;;;;2.90;2.80;;;2.80;99.90;;;;;;5012144;28;20201;-65
2022/04/03 01:37:01;;;;;;;2.40;2.30;;;2.80;99.90;;;;;;5012310;28;20243;-65
2022/04/03 01:39:28;;;;;;;2.80;2.60;;;2.90;99.90;;;;;;5012478;28;20268;-67
2022/04/03 01:41:55;;;;;;;2.80;2.70;;;2.90;99.90;;;;;;5012924;28;20572;-66
2022/04/03 01:44:23;;;;;;;2.73;2.63;;;2.90;99.90;;;;;;5012207;28;20235;-66
2022/04/03 01:46:50;;;;;;;2.70;2.60;;;2.90;99.90;;;;;;5012697;28;20232;-65
2022/04/03 01:49:17;;;;;;;2.70;2.60;;;2.90;99.90;;;;;;5013051;28;20209;-67
2022/04/03 01:51:44;;;;;;;2.60;2.50;;;3.00;99.90;;;;;;5014312;28;20639;-65
2022/04/03 01:54:11;;;;;;;2.70;2.60;;;3.10;99.90;;;;;;5031418;28;20271;-67
2022/04/03 01:56:38;;;;;;;2.80;2.70;;;3.10;99.90;;;;;;5032242;28;20282;-66
2022/04/03 01:59:06;;;;;;;2.77;2.67;;;3.00;99.90;;;;;;5031913;28;20204;-67
2022/04/03 02:01:35;;;;;;;2.70;2.60;;;3.00;99.90;;;;;;5031917;28;20234;-65
2022/04/03 02:04:03;;;;;;;2.50;2.40;;;3.10;99.90;;;;;;5033729;28;20275;-65
2022/04/03 02:06:30;;;;;;;2.50;2.40;;;3.10;99.90;;;;;;5025256;28;20221;-68
2022/04/03 02:08:57;;;;;;;2.73;2.63;;;3.10;99.90;;;;;;5011585;28;20663;-68
2022/04/03 02:11:24;;;;;;;2.60;2.50;;;3.10;99.90;;;;;;5012252;28;20225;-67
2022/04/03 02:13:51;;;;;;;2.70;2.60;;;3.00;99.90;;;;;;5015160;28;20205;-67
2022/04/03 02:16:19;;;;;;;2.60;2.50;;;3.20;99.90;;;;;;5026165;28;20225;-66
2022/04/03 02:18:48;;;;;;;2.87;2.77;;;3.00;99.90;;;;;;5010861;28;20570;-67
2022/04/03 02:21:15;;;;;;;2.80;2.70;;;3.00;99.90;;;;;;5012079;28;20216;-66
2022/04/03 02:23:42;;;;;;;2.30;2.20;;;3.00;99.90;;;;;;5009411;28;20228;-65
2022/04/03 02:26:09;;;;;;;2.42;2.33;;;3.10;99.90;;;;;;5011726;28;20316;-67
2022/04/03 02:28:39;;;;;;;2.93;2.77;;;2.90;99.90;;;;;;5011938;28;20228;-66
2022/04/03 02:31:06;;;;;;;2.43;2.33;;;2.90;99.90;;;;;;5012772;28;20256;-67
2022/04/03 02:33:32;;;;;;;2.73;2.63;;;2.90;99.90;;;;;;5014768;28;20245;-68
2022/04/03 02:36:01;;;;;;;2.50;2.40;;;2.90;99.90;;;;;;5012964;28;20260;-67
2022/04/03 02:38:28;;;;;;;2.97;2.87;;;2.80;99.90;;;;;;5015066;28;20209;-66
2022/04/03 02:40:55;;;;;;;2.90;2.80;;;2.80;99.90;;;;;;5015244;28;20668;-69
2022/04/03 02:43:22;;;;;;;2.93;2.80;;;2.80;99.90;;;;;;5021267;28;20225;-65
2022/04/03 02:45:49;;;;;;;2.57;2.47;;;2.80;99.90;;;;;;5025228;28;20311;-65
2022/04/03 02:48:16;;;;;;;2.50;2.40;;;2.90;99.90;;;;;;5014776;28;20216;-67
2022/04/03 02:50:43;;;;;;;2.80;2.70;;;2.80;99.90;;;;;;5023487;28;20205;-66
2022/04/03 02:53:12;;;;;;;2.50;2.40;;;2.80;99.90;;;;;;5022192;28;20209;-66
2022/04/03 02:55:39;;;;;;;2.40;2.30;;;2.80;99.90;;;;;;5014489;28;20235;-67
2022/04/03 02:58:06;;;;;;;2.30;2.20;;;2.80;99.90;;;;;;5010630;28;20205;-67
2022/04/03 03:00:33;;;;;;;2.37;2.27;;;2.80;99.90;;;;;;5015131;28;20267;-67
2022/04/03 03:03:02;;;;;;;2.60;2.50;;;2.80;99.90;;;;;;5015258;28;20675;-67
2022/04/03 03:05:29;;;;;;;2.50;2.40;;;2.70;99.90;;;;;;5018148;28;20233;-67
2022/04/03 03:07:56;;;;;;;2.83;2.73;;;2.70;99.90;;;;;;5022788;28;21079;-65
2022/04/03 03:10:24;;;;;;;2.67;2.57;;;2.70;99.90;;;;;;5036218;28;20201;-68
2022/04/03 03:12:51;;;;;;;2.53;2.43;;;2.70;99.90;;;;;;5042530;28;20662;-66
2022/04/03 03:15:19;;;;;;;2.77;2.67;;;2.70;99.90;;;;;;5026965;28;20216;-66
2022/04/03 03:17:46;;;;;;;2.90;2.80;;;2.60;99.90;;;;;;5034064;28;20215;-67
2022/04/03 03:20:13;;;;;;;3.30;3.10;;;2.60;99.90;;;;;;5035751;28;20546;-67
2022/04/03 03:22:41;;;;;;;3.03;2.90;;;2.60;99.90;;;;;;5034494;28;20663;-67
2022/04/03 03:25:08;;;;;;;3.43;3.23;;;2.60;99.90;;;;;;5035278;28;20251;-68
2022/04/03 03:27:38;;;;;;;3.10;3.00;;;2.60;99.90;;;;;;5040975;28;20251;-67
2022/04/03 03:30:07;;;;;;;3.10;2.90;;;2.70;99.90;;;;;;5044186;28;20197;-68
2022/04/03 03:32:34;;;;;;;3.17;3.07;;;2.70;99.90;;;;;;5041691;28;20208;-67
2022/04/03 03:35:02;;;;;;;3.67;3.47;;;2.80;99.90;;;;;;5034465;28;20221;-66
2022/04/03 03:37:29;;;;;;;3.30;3.10;;;2.80;99.90;;;;;;5034503;28;20192;-67
2022/04/03 03:39:55;;;;;;;2.90;2.80;;;2.90;99.90;;;;;;5035187;28;20211;-65
2022/04/03 03:42:23;;;;;;;2.77;2.67;;;2.80;99.90;;;;;;5034445;28;20236;-67
2022/04/03 03:44:51;;;;;;;3.00;2.90;;;2.80;99.90;;;;;;5032404;28;20228;-67
2022/04/03 03:47:18;;;;;;;3.27;3.07;;;2.80;99.90;;;;;;5033562;28;20762;-67
2022/04/03 03:49:45;;;;;;;3.13;2.93;;;2.80;99.90;;;;;;5033244;28;20205;-67
2022/04/03 03:52:12;;;;;;;2.40;2.30;;;2.70;99.90;;;;;;5033716;28;20300;-66
2022/04/03 03:54:39;;;;;;;2.40;2.30;;;2.70;99.90;;;;;;5033421;28;20201;-67
2022/04/03 03:57:06;;;;;;;2.40;2.30;;;2.80;99.90;;;;;;5033151;28;20750;-66
2022/04/03 03:59:33;;;;;;;2.37;2.27;;;2.80;99.90;;;;;;5033594;28;20212;-66
2022/04/03 04:02:02;;;;;;;2.40;2.30;;;2.90;99.90;;;;;;5033657;28;20204;-66
2022/04/03 04:04:29;;;;;;;2.63;2.53;;;3.00;99.90;;;;;;5035096;28;20224;-67
2022/04/03 04:06:56;;;;;;;2.67;2.57;;;3.10;99.90;;;;;;5040662;22;20222;-64
2022/04/03 04:09:23;;;;;;;3.23;3.03;;;3.00;99.90;;;;;;5012475;28;20296;-64
2022/04/03 04:11:50;;;;;;;3.37;3.17;;;3.00;99.90;;;;;;5013028;28;20228;-63
2022/04/03 04:14:17;;;;;;;3.83;3.63;;;3.00;99.90;;;;;;5011601;28;20634;-63
2022/04/03 04:16:46;;;;;;;3.40;3.20;;;2.90;99.90;;;;;;5012060;28;20271;-63
2022/04/03 04:19:15;;;;;;;2.83;2.73;;;2.70;99.90;;;;;;5012733;28;20220;-62
2022/04/03 04:21:41;;;;;;;3.17;2.97;;;2.60;99.90;;;;;;5013389;28;20251;-63
2022/04/03 04:24:08;;;;;;;2.80;2.70;;;2.70;99.90;;;;;;5011921;28;20236;-64
2022/04/03 04:26:35;;;;;;;3.87;3.67;;;2.80;99.90;;;;;;5012315;28;20247;-63
2022/04/03 04:29:03;;;;;;;4.50;4.20;;;2.80;99.90;;;;;;5012821;28;20212;-63
2022/04/03 04:31:31;;;;;;;3.50;3.30;;;2.80;99.90;;;;;;5012893;28;20205;-62
2022/04/03 04:33:58;;;;;;;3.50;3.30;;;2.90;99.90;;;;;;5012426;28;20236;-63
2022/04/03 04:36:26;;;;;;;3.17;3.07;;;2.90;99.90;;;;;;5012608;28;20581;-64
2022/04/03 04:38:54;;;;;;;3.10;3.00;;;2.90;99.90;;;;;;5013177;28;20587;-64
2022/04/03 04:41:20;;;;;;;3.50;3.30;;;3.00;99.90;;;;;;5013236;28;20229;-63
2022/04/03 04:43:47;;;;;;;3.10;3.00;;;3.00;99.90;;;;;;5012713;28;20275;-64
2022/04/03 04:46:14;;;;;;;3.03;2.93;;;3.10;99.90;;;;;;5012707;28;20810;-65
2022/04/03 04:48:41;;;;;;;3.07;2.87;;;3.10;99.90;;;;;;5012538;28;20628;-63
2022/04/03 04:51:09;;;;;;;3.17;2.97;;;3.00;99.90;;;;;;5017497;28;20296;-65
2022/04/03 04:53:37;;;;;;;2.80;2.70;;;3.00;99.90;;;;;;5013347;28;20209;-64
2022/04/03 04:56:05;;;;;;;3.70;3.50;;;3.10;99.90;;;;;;5011940;28;20683;-65
2022/04/03 04:58:31;;;;;;;3.40;3.20;;;3.10;99.90;;;;;;5012357;28;20288;-64
2022/04/03 05:00:58;;;;;;;2.90;2.80;;;3.00;99.90;;;;;;5012731;28;20299;-63
2022/04/03 05:03:25;;;;;;;3.13;3.03;;;3.00;99.90;;;;;;5011889;28;20777;-63
2022/04/03 05:05:52;;;;;;;3.33;3.13;;;3.10;99.90;;;;;;5011718;28;20229;-64
2022/04/03 05:08:20;;;;;;;3.63;3.43;;;3.10;99.90;;;;;;5011530;28;20784;-63
2022/04/03 05:10:52;;;;;;;3.23;3.10;;;3.10;99.90;;;;;;5011701;28;20215;-63
2022/04/03 05:13:19;;;;;;;3.50;3.30;;;3.10;99.90;;;;;;5012116;28;20209;-63
2022/04/03 05:15:46;;;;;;;3.60;3.40;;;3.20;99.90;;;;;;5012016;28;20233;-63
2022/04/03 05:18:13;;;;;;;3.30;3.20;;;3.20;99.90;;;;;;5011828;28;20213;-63
2022/04/03 05:20:41;;;;;;;3.30;3.10;;;3.00;99.90;;;;;;5011941;28;20215;-64
2022/04/03 05:23:08;;;;;;;3.50;3.30;;;3.20;99.90;;;;;;5011054;28;20293;-63
2022/04/03 05:25:35;;;;;;;3.83;3.63;;;3.20;99.90;;;;;;5011555;28;20271;-64
2022/04/03 05:28:03;;;;;;;3.33;3.20;;;3.20;99.90;;;;;;5012566;28;20288;-63
2022/04/03 05:30:30;;;;;;;3.40;3.20;;;3.20;99.90;;;;;;5013826;28;20205;-63
2022/04/03 05:32:57;;;;;;;3.60;3.40;;;3.20;99.90;;;;;;5015093;28;20244;-64
2022/04/03 05:35:24;;;;;;;3.80;3.60;;;3.20;99.90;;;;;;5014810;28;20289;-62
2022/04/03 05:37:51;;;;;;;3.73;3.53;;;3.20;99.90;;;;;;5012297;28;20284;-65
2022/04/03 05:40:20;;;;;;;3.13;3.00;;;3.20;99.90;;;;;;5012732;28;20228;-63
2022/04/03 05:42:47;;;;;;;3.37;3.20;;;3.20;99.90;;;;;;5011943;28;20300;-65
2022/04/03 05:45:16;;;;;;;3.40;3.20;;;3.20;99.90;;;;;;5012005;28;20236;-63
2022/04/03 05:47:43;;;;;;;3.53;3.33;;;3.20;99.90;;;;;;5011504;28;20378;-63
2022/04/03 05:50:10;;;;;;;3.33;3.13;;;3.20;99.90;;;;;;5012884;28;20735;-63
2022/04/03 05:52:42;;;;;;;3.37;3.17;;;3.20;99.90;;;;;;5012588;28;20205;-63
2022/04/03 05:55:10;;;;;;;3.40;3.20;;;3.30;99.90;;;;;;5011648;28;20233;-63
2022/04/03 05:57:38;;;;;;;3.30;3.20;;;3.30;99.90;;;;;;5010912;28;20283;-63
2022/04/03 06:00:06;;;;;;;3.20;3.10;;;3.30;99.90;;;;;;5011890;28;20240;-64
2022/04/03 06:02:46;;;;;;;3.23;3.07;;;3.30;99.90;;;;;;5011830;28;20248;-63
2022/04/03 06:05:13;;;;;;;3.33;3.13;;;3.30;99.90;;;;;;5012000;28;20641;-63
2022/04/03 06:07:40;;;;;;;3.60;3.40;;;3.40;99.90;;;;;;4993514;28;20288;-63
2022/04/03 06:10:07;;;;;;;3.60;3.40;;;3.40;99.90;;;;;;5007880;28;20240;-64
2022/04/03 06:12:34;;;;;;;3.60;3.40;;;3.40;99.90;;;;;;5015530;28;20205;-62
2022/04/03 06:15:01;;;;;;;3.63;3.42;;;3.50;99.90;;;;;;5015295;28;20224;-63
2022/04/03 06:17:28;;;;;;;3.60;3.40;;;3.50;99.90;;;;;;5014938;28;20229;-63
2022/04/03 06:19:56;;;;;;;3.28;3.08;;;3.50;99.90;;;;;;5015746;28;20729;-63
2022/04/03 06:22:23;;;;;;;2.83;2.72;;;3.60;99.90;;;;;;5015733;28;20209;-63
2022/04/03 06:24:50;;;;;;;3.47;3.27;;;3.60;99.90;;;;;;5015065;28;20288;-63
2022/04/03 06:27:17;;;;;;;3.17;3.00;;;3.70;99.90;;;;;;5014836;28;20237;-63
2022/04/03 06:29:44;;;;;;;3.70;3.50;;;3.70;99.90;;;;;;5015621;28;20670;-63
2022/04/03 06:32:11;;;;;;;3.50;3.30;;;3.80;99.90;;;;;;5015091;28;20225;-63
2022/04/03 06:34:38;;;;;;;3.80;3.60;;;3.80;99.90;;;;;;5015133;28;20736;-62
2022/04/03 06:37:06;;;;;;;4.20;3.17;;;3.80;99.90;;;;;;5014761;28;20934;-64
2022/04/03 06:39:35;;;;;;;3.47;3.27;;;3.80;99.90;;;;;;5015413;28;20232;-63
2022/04/03 06:42:03;;;;;;;3.40;3.20;;;3.80;99.90;;;;;;5014556;28;20627;-62
2022/04/03 06:44:31;;;;;;;2.93;2.83;;;3.80;99.90;;;;;;5017738;28;20244;-62
2022/04/03 06:46:58;;;;;;;3.50;3.30;;;3.80;99.90;;;;;;5017478;28;20240;-63
2022/04/03 06:49:25;;;;;;;2.90;2.80;;;3.90;99.90;;;;;;5018134;28;20296;-63
2022/04/03 06:51:52;;;;;;;3.33;3.13;;;3.90;99.90;;;;;;5017042;28;20264;-63
2022/04/03 06:54:20;;;;;;;3.50;3.30;;;4.00;99.90;;;;;;5016764;28;20237;-63
2022/04/03 06:56:47;;;;;;;3.40;3.20;;;4.10;99.90;;;;;;5015442;28;20711;-63
2022/04/03 06:59:14;;;;;;;3.53;3.33;;;4.10;99.90;;;;;;5015046;28;20292;-63
2022/04/03 07:01:41;;;;;;;3.63;3.43;;;4.10;99.90;;;;;;5015466;28;20297;-63
2022/04/03 07:04:07;;;;;;;3.90;3.70;;;4.10;99.90;;;;;;5013941;28;20201;-63
2022/04/03 07:06:34;;;;;;;3.77;3.57;;;3.90;99.90;;;;;;5014147;28;20233;-64
2022/04/03 07:09:01;;;;;;;4.27;4.00;;;3.80;99.90;;;;;;5013883;28;20250;-63
2022/04/03 07:11:29;;;;;;;3.80;3.60;;;3.80;99.90;;;;;;5014075;28;20203;-64
2022/04/03 07:13:56;;;;;;;3.60;3.40;;;3.90;99.90;;;;;;5013991;28;20209;-63
2022/04/03 07:16:23;;;;;;;4.07;3.87;;;4.10;99.90;;;;;;5014196;28;20248;-63
2022/04/03 07:18:50;;;;;;;3.80;3.60;;;4.20;99.90;;;;;;5014050;28;20216;-64
2022/04/03 07:21:17;;;;;;;3.23;3.03;;;4.20;99.90;;;;;;5014365;28;20233;-63
2022/04/03 07:23:44;;;;;;;4.10;3.90;;;4.20;99.90;;;;;;5011824;28;20281;-63
2022/04/03 07:26:11;;;;;;;5.30;5.00;;;4.20;99.90;;;;;;5013119;28;20320;-64
2022/04/03 07:28:40;;;;;;;4.50;4.20;;;4.20;99.90;;;;;;5012048;28;20241;-63
2022/04/03 07:31:08;;;;;;;3.90;3.70;;;4.20;99.90;;;;;;5012160;28;20209;-64
2022/04/03 07:33:35;;;;;;;4.00;3.80;;;4.20;99.90;;;;;;5013173;28;20201;-63
2022/04/03 07:36:04;;;;;;;3.40;3.20;;;4.20;99.90;;;;;;5013608;28;20308;-64
2022/04/03 07:38:31;;;;;;;2.90;2.80;;;4.20;99.90;;;;;;5013506;28;20197;-63
2022/04/03 07:40:58;;;;;;;2.70;2.60;;;4.20;99.90;;;;;;5013080;28;20201;-63
2022/04/03 07:43:26;;;;;;;3.07;2.97;;;4.30;99.90;;;;;;5013201;28;20285;-63
2022/04/03 07:45:55;;;;;;;2.90;2.80;;;4.30;99.90;;;;;;5013073;28;20336;-66
2022/04/03 07:48:22;;;;;;;3.50;3.30;;;4.20;99.90;;;;;;5012803;28;20292;-66
2022/04/03 07:50:49;;;;;;;3.03;2.90;;;4.30;99.90;;;;;;5013533;28;20288;-62
2022/04/03 07:53:16;;;;;;;3.00;2.80;;;4.40;99.90;;;;;;5013075;28;20214;-62
2022/04/03 07:55:43;;;;;;;3.00;2.90;;;4.60;99.90;;;;;;5013154;28;20225;-60
2022/04/03 07:58:10;;;;;;;3.03;2.83;;;4.80;99.90;;;;;;5011031;28;20213;-62
2022/04/03 08:00:37;;;;;;;3.20;3.00;;;5.00;99.90;;;;;;5010729;28;20205;-63
2022/04/03 08:03:05;;;;;;;3.20;3.00;;;5.00;99.90;;;;;;5013127;28;20260;-63
2022/04/03 08:05:32;;;;;;;2.40;2.30;;;5.10;99.90;;;;;;5013084;28;20229;-64
2022/04/03 08:07:59;;;;;;;2.70;2.60;;;5.30;99.90;;;;;;5012902;28;20209;-62
2022/04/03 08:10:26;;;;;;;2.73;2.63;;;5.40;99.90;;;;;;5014185;28;20235;-62
2022/04/03 08:12:53;;;;;;;2.70;2.60;;;5.30;99.90;;;;;;5013882;28;20229;-62
2022/04/03 08:15:21;;;;;;;2.80;2.70;;;5.20;99.90;;;;;;5013945;28;20244;-62
2022/04/03 08:17:48;;;;;;;2.60;2.50;;;5.10;99.90;;;;;;5012272;28;20231;-62
2022/04/03 08:20:19;;;;;;;2.97;2.87;;;5.10;99.90;;;;;;5013220;28;20297;-61
2022/04/03 08:22:47;;;;;;;2.60;2.50;;;5.00;99.90;;;;;;5013470;28;20216;-62
2022/04/03 08:25:15;;;;;;;2.70;2.60;;;5.00;99.90;;;;;;5012942;28;20731;-61
2022/04/03 08:27:44;;;;;;;2.50;2.40;;;5.20;99.90;;;;;;5012741;28;20225;-63
2022/04/03 08:30:14;;;;;;;2.93;2.83;;;5.30;99.90;;;;;;5012621;28;20200;-62
2022/04/03 08:32:41;;;;;;;2.40;2.20;;;5.50;99.90;;;;;;5013422;28;20209;-61
2022/04/03 08:35:08;;;;;;;2.57;2.47;;;5.60;99.90;;;;;;5013638;28;20235;-61
2022/04/03 08:37:37;;;;;;;2.40;2.30;;;5.60;99.90;;;;;;5012120;28;20267;-61
2022/04/03 08:40:05;;;;;;;2.13;2.03;;;5.60;99.90;;;;;;5012363;28;20766;-62
2022/04/03 08:42:32;;;;;;;2.20;2.10;;;5.30;99.90;;;;;;5013098;28;20240;-61
2022/04/03 08:44:59;;;;;;;2.33;2.23;;;5.30;99.90;;;;;;5013009;28;20237;-63
2022/04/03 08:47:27;;;;;;;2.40;2.30;;;5.40;99.90;;;;;;5011812;28;20235;-62
2022/04/03 08:49:58;;;;;;;2.20;2.10;;;5.50;99.90;;;;;;5009191;28;20301;-62
2022/04/03 08:52:25;;;;;;;1.93;1.83;;;5.40;99.90;;;;;;5009490;28;20559;-61
2022/04/03 08:54:53;;;;;;;2.20;2.10;;;5.20;99.90;;;;;;5010519;28;20352;-61
2022/04/03 08:57:23;;;;;;;2.07;1.97;;;5.00;99.90;;;;;;5008199;28;20221;-60
2022/04/03 08:59:51;;;;;;;1.90;1.80;;;5.10;99.90;;;;;;5012124;28;20241;-61
2022/04/03 09:02:18;;;;;;;2.00;1.90;;;5.30;99.90;;;;;;5007993;28;20668;-63
2022/04/03 09:04:45;;;;;;;2.07;1.90;;;5.40;99.90;;;;;;5009973;28;20271;-61
2022/04/03 09:07:18;;;;;;;1.90;1.80;;;5.30;99.90;;;;;;5009218;28;20587;-62
2022/04/03 09:09:45;;;;;;;1.97;1.87;;;5.40;99.90;;;;;;5009609;28;20714;-63
2022/04/03 09:12:15;;;;;;;2.00;1.90;;;5.40;99.90;;;;;;5010345;28;20676;-61
2022/04/03 09:14:46;;;;;;;1.93;1.83;;;5.30;99.90;;;;;;5014515;28;20225;-61
2022/04/03 09:17:14;;;;;;;1.80;1.70;;;5.50;99.90;;;;;;5018077;28;20217;-61
2022/04/03 09:19:41;;;;;;;1.53;1.53;;;5.80;99.90;;;;;;5015223;28;20198;-60
2022/04/03 09:22:08;;;;;;;2.00;1.90;;;6.00;99.90;;;;;;5015167;28;20240;-61
2022/04/03 09:24:47;;;;;;;2.40;2.30;;;6.30;99.90;;;;;;5015290;28;20201;-61
2022/04/03 09:27:15;;;;;;;1.90;1.80;;;6.80;99.90;;;;;;5016445;28;20232;-62
2022/04/03 09:29:45;;;;;;;1.60;1.50;;;7.10;99.90;;;;;;5011991;28;20288;-63
2022/04/03 09:32:12;;;;;;;1.80;1.70;;;7.10;99.90;;;;;;5009483;28;20228;-63
2022/04/03 09:34:40;;;;;;;1.47;1.47;;;6.40;99.90;;;;;;5013332;28;20206;-62
2022/04/03 09:37:06;;;;;;;1.47;1.43;;;6.10;99.90;;;;;;5014357;28;20299;-64
2022/04/03 09:39:34;;;;;;;1.63;1.53;;;5.90;99.90;;;;;;5015044;28;20304;-63
2022/04/03 09:42:03;;;;;;;1.50;1.50;;;6.00;99.90;;;;;;5011742;28;20209;-64
2022/04/03 09:44:33;;;;;;;1.80;1.70;;;5.90;99.90;;;;;;5013343;28;20313;-63
2022/04/03 09:47:15;;;;;;;1.87;1.77;;;6.00;99.90;;;;;;5013656;28;20695;-61
2022/04/03 09:49:45;;;;;;;1.70;1.60;;;6.00;99.90;;;;;;5014055;28;20210;-63
2022/04/03 09:52:13;;;;;;;1.57;1.50;;;5.90;99.90;;;;;;5014086;28;20255;-62
2022/04/03 09:54:40;;;;;;;1.70;1.60;;;5.90;99.90;;;;;;5015786;28;20203;-63
2022/04/03 09:57:20;;;;;;;1.80;1.70;;;5.80;99.90;;;;;;5012881;28;20225;-62
2022/04/03 09:59:53;;;;;;;1.80;1.70;;;5.80;99.90;;;;;;5015342;28;20224;-60
2022/04/03 10:02:22;;;;;;;1.37;1.37;;;5.80;99.90;;;;;;5016306;28;20292;-62
2022/04/03 10:04:52;;;;;;;1.83;1.73;;;5.80;99.90;;;;;;5020972;28;20244;-60
2022/04/03 10:07:22;;;;;;;1.60;1.40;;;5.80;99.90;;;;;;5015080;28;20221;-63
2022/04/03 10:09:54;;;;;;;1.40;1.40;;;5.90;99.90;;;;;;5012454;28;20220;-62
2022/04/03 10:12:23;;;;;;;1.87;1.77;;;6.10;99.90;;;;;;5013586;28;20197;-62
2022/04/03 10:14:53;;;;;;;1.50;1.50;;;6.20;99.90;;;;;;5013706;28;20232;-62
2022/04/03 10:17:21;;;;;;;1.40;1.40;;;6.20;99.90;;;;;;5012244;28;20563;-64
2022/04/03 10:19:51;;;;;;;1.30;1.30;;;6.20;99.90;;;;;;5011482;28;20260;-64
2022/04/03 10:22:23;;;;;;;1.40;1.40;;;6.20;99.90;;;;;;5010455;28;20256;-67
2022/04/03 10:24:55;;;;;;;1.40;1.30;;;6.20;99.90;;;;;;5009706;28;20237;-63
2022/04/03 10:27:28;;;;;;;1.30;1.30;;;6.30;99.90;;;;;;5007387;28;20228;-64
2022/04/03 10:29:59;;;;;;;1.40;1.40;;;6.30;99.90;;;;;;5009210;28;20660;-63
2022/04/03 10:32:28;;;;;;;1.30;1.30;;;6.40;99.90;;;;;;5008578;28;20205;-62
2022/04/03 10:34:58;;;;;;;1.23;1.23;;;6.40;99.90;;;;;;5010334;28;20243;-62
2022/04/03 10:37:27;;;;;;;1.10;1.10;;;6.30;99.90;;;;;;5011370;28;20296;-62
2022/04/03 10:39:55;;;;;;;1.23;1.23;;;6.40;99.90;;;;;;5011076;28;20232;-61
2022/04/03 10:42:27;;;;;;;1.40;1.30;;;6.40;99.90;;;;;;5011991;28;20296;-63
2022/04/03 10:45:25;;;;;;;1.43;1.33;;;6.30;99.90;;;;;;5010982;28;20216;-62
2022/04/03 10:47:52;;;;;;;1.00;1.00;;;6.20;99.90;;;;;;5005847;28;20248;-63
2022/04/03 10:50:20;;;;;;;1.00;1.00;;;6.20;99.90;;;;;;5006799;28;20791;-60
2022/04/03 10:52:58;;;;;;;1.07;1.07;;;6.10;99.90;;;;;;5012032;28;20296;-61
2022/04/03 10:55:29;;;;;;;1.20;1.20;;;6.10;99.90;;;;;;5015681;28;20284;-60
2022/04/03 10:58:02;;;;;;;1.10;1.10;;;6.10;99.90;;;;;;5015240;28;20221;-61
2022/04/03 11:00:41;;;;;;;1.10;1.10;;;6.20;99.90;;;;;;5014097;28;20197;-60
2022/04/03 11:03:37;;;;;;;1.17;1.17;;;6.30;99.90;;;;;;5013544;28;20224;-63
2022/04/03 11:06:25;;;;;;;1.00;1.00;;;6.40;99.90;;;;;;5009199;28;20308;-64
2022/04/03 11:08:58;;;;;;;1.00;1.00;;;6.50;99.90;;;;;;5008402;28;20198;-63
2022/04/03 11:11:44;;;;;;;1.00;1.00;;;6.50;99.90;;;;;;5014263;28;20209;-63
2022/04/03 11:14:13;;;;;;;0.90;0.90;;;6.60;99.90;;;;;;5037556;23;20290;-66
2022/04/03 11:16:55;;;;;;;0.97;0.97;;;6.70;99.90;;;;;;5032817;28;20205;-65
2022/04/03 11:19:36;;;;;;;1.00;1.00;;;6.60;99.90;;;;;;5030970;28;20213;-65
2022/04/03 11:22:05;;;;;;;1.27;1.27;;;6.70;99.90;;;;;;5038927;28;20232;-65
2022/04/03 11:24:37;;;;;;;1.50;1.40;;;6.80;99.90;;;;;;5045947;28;20236;-65
2022/04/03 11:27:05;;;;;;;1.40;1.40;;;6.90;99.90;;;;;;5027225;28;20213;-64
2022/04/03 11:29:32;;;;;;;1.00;1.00;;;6.90;99.90;;;;;;5018523;28;20280;-65
2022/04/03 11:32:03;;;;;;;1.10;1.10;;;6.80;99.90;;;;;;5027074;28;20200;-66
2022/04/03 11:34:30;;;;;;;1.10;1.10;;;7.00;99.90;;;;;;5039214;28;20236;-66
2022/04/03 11:36:59;;;;;;;1.10;1.10;;;7.10;99.90;;;;;;5029302;28;20232;-65
2022/04/03 11:39:33;;;;;;;1.00;1.00;;;7.10;99.90;;;;;;5040222;28;20232;-65
2022/04/03 11:42:06;;;;;;;1.17;1.17;;;7.10;99.90;;;;;;5037499;28;20213;-65
2022/04/03 11:44:34;;;;;;;1.10;1.10;;;7.20;99.90;;;;;;5035901;28;20221;-67
2022/04/03 11:47:04;;;;;;;1.07;1.07;;;7.00;99.90;;;;;;5020973;28;20225;-65
2022/04/03 11:49:32;;;;;;;1.13;1.10;;;7.00;99.90;;;;;;5029296;28;20196;-65
2022/04/03 11:52:06;;;;;;;1.20;1.20;;;6.90;99.90;;;;;;5025232;28;20630;-64
2022/04/03 11:54:34;;;;;;;1.13;1.13;;;6.70;99.90;;;;;;5024503;28;20270;-66
2022/04/03 11:57:02;;;;;;;1.23;1.23;;;6.70;99.90;;;;;;5024739;28;20907;-66
2022/04/03 11:59:30;;;;;;;1.30;1.20;;;6.50;99.90;;;;;;5027695;28;20275;-64
2022/04/03 12:01:57;;;;;;;1.40;1.40;;;6.30;99.90;;;;;;5029189;28;20207;-65
2022/04/03 12:04:25;;;;;;;1.50;1.40;;;6.20;99.90;;;;;;5022804;28;20221;-66
2022/04/03 12:06:59;;;;;;;1.50;1.40;;;6.00;99.90;;;;;;5030623;28;20340;-65
2022/04/03 12:09:27;;;;;;;1.37;1.37;;;6.00;99.90;;;;;;5028321;28;20201;-67
2022/04/03 12:11:56;;;;;;;1.30;1.30;;;5.90;99.90;;;;;;5025289;28;20205;-66
2022/04/03 12:14:25;;;;;;;1.40;1.40;;;5.90;99.90;;;;;;5012168;28;20237;-67
2022/04/03 12:17:00;;;;;;;1.40;1.40;;;5.80;99.90;;;;;;5022640;28;20260;-65
2022/04/03 12:19:30;;;;;;;1.30;1.30;;;5.80;99.90;;;;;;5017250;28;20212;-67
2022/04/03 12:22:00;;;;;;;1.20;1.20;;;5.90;99.90;;;;;;5031780;28;20663;-67
2022/04/03 12:24:28;;;;;;;1.60;1.50;;;6.00;99.90;;;;;;5029446;28;20221;-66
2022/04/03 12:26:58;;;;;;;1.10;1.10;;;6.20;99.90;;;;;;5027745;28;20254;-65
2022/04/03 12:29:26;;;;;;;1.10;1.10;;;6.50;99.90;;;;;;5029523;28;20292;-65
2022/04/03 12:31:58;;;;;;;1.20;1.20;;;6.60;99.90;;;;;;5012595;28;20209;-66
2022/04/03 12:34:27;;;;;;;1.30;1.30;;;6.60;99.90;;;;;;5013224;28;20223;-66
2022/04/03 12:36:56;;;;;;;1.20;1.20;;;6.80;99.90;;;;;;5014076;28;20201;-66
2022/04/03 12:39:44;;;;;;;1.53;1.53;;;6.80;99.90;;;;;;5021018;28;20297;-66
2022/04/03 12:42:19;;;;;;;1.60;1.60;;;6.90;99.90;;;;;;5015961;28;20264;-65
2022/04/03 12:44:49;;;;;;;1.73;1.63;;;6.80;99.90;;;;;;5021724;28;20201;-66
2022/04/03 12:47:18;;;;;;;1.40;1.40;;;6.70;99.90;;;;;;5017283;28;20903;-66
2022/04/03 12:49:50;;;;;;;1.57;1.50;;;6.70;99.90;;;;;;5014564;28;20241;-66
2022/04/03 12:52:40;;;;;;;1.23;1.23;;;6.90;99.90;;;;;;5022839;28;20289;-67
2022/04/03 12:55:09;;;;;;;1.33;1.27;;;6.80;99.90;;;;;;5014908;28;20679;-67
2022/04/03 13:00:22;;;;;;;1.10;1.10;;;6.70;99.90;;;;;;5028762;28;20205;-66
2022/04/03 13:02:50;;;;;;;1.30;1.30;;;6.70;99.90;;;;;;5026633;28;20304;-65
2022/04/03 13:05:18;;;;;;;1.40;1.40;;;6.60;99.90;;;;;;5022202;28;20247;-66
2022/04/03 13:07:46;;;;;;;1.20;1.20;;;6.60;99.90;;;;;;5022326;28;20221;-67